createdAt,value
2022-08-03T00:01:30.587Z,95103.50
2022-08-03T00:03:57.448Z,95100.03
2022-08-03T00:06:24.183Z,95104.13
2022-08-03T00:08:51.083Z,95101.88
2022-08-03T00:11:17.874Z,95101.44
2022-08-03T00:13:44.690Z,95098.47
2022-08-03T00:16:11.864Z,95096.41
2022-08-03T00:18:38.547Z,95093.88
2022-08-03T00:21:05.901Z,95097.69
2022-08-03T00:23:51.804Z,95103.53
2022-08-03T00:26:20.815Z,95094.91
2022-08-03T00:28:48.230Z,95094.56
2022-08-03T00:31:15.122Z,95098.16
2022-08-03T00:33:59.629Z,95095.03
2022-08-03T00:36:28.883Z,95104.31
2022-08-03T00:38:56.341Z,95107.44
2022-08-03T00:41:23.507Z,95102.56
2022-08-03T00:43:50.658Z,95084.91
2022-08-03T00:46:21.439Z,95095.88
2022-08-03T00:48:52.451Z,95099.84
2022-08-03T00:51:20.804Z,95095.25
2022-08-03T00:53:48.069Z,95096.34
2022-08-03T00:56:16.281Z,95091.78
2022-08-03T00:58:47.189Z,95099.41
2022-08-03T01:01:14.984Z,95108.41
2022-08-03T01:03:42.133Z,95103.25
2022-08-03T01:06:18.722Z,95099.41
2022-08-03T01:09:00.304Z,95097.66
2022-08-03T01:11:59.956Z,95085.22
2022-08-03T01:14:45.965Z,95094.16
2022-08-03T01:17:25.803Z,95089.72
2022-08-03T01:20:10.618Z,95088.59
2022-08-03T01:22:45.381Z,95097.66
2022-08-03T01:25:21.316Z,95096.66
2022-08-03T01:28:02.735Z,95087.34
2022-08-03T01:30:35.323Z,95082.84
2022-08-03T01:33:30.020Z,95092.31
2022-08-03T01:36:04.979Z,95097.00
2022-08-03T01:38:58.638Z,95096.44
2022-08-03T01:41:31.507Z,95095.09
2022-08-03T01:44:28.275Z,95101.03
2022-08-03T01:46:50.037Z,95085.06
2022-08-03T01:49:18.209Z,95091.41
2022-08-03T01:52:03.056Z,95090.88
2022-08-03T01:54:36.329Z,95102.78
2022-08-03T01:57:03.894Z,95100.91
2022-08-03T01:59:34.511Z,95094.69
2022-08-03T02:02:29.016Z,95100.03
2022-08-03T02:04:52.773Z,95096.00
2022-08-03T02:07:20.558Z,95096.69
2022-08-03T02:09:51.465Z,95099.22
2022-08-03T02:12:19.332Z,95100.56
2022-08-03T02:14:48.722Z,95089.97
2022-08-03T02:17:16.273Z,95089.84
2022-08-03T02:19:44.156Z,95092.44
2022-08-03T02:22:13.363Z,95093.09
2022-08-03T02:24:40.723Z,95091.31
2022-08-03T02:27:18.490Z,95087.00
2022-08-03T02:29:49.235Z,95081.03
2022-08-03T02:32:20.455Z,95087.72
2022-08-03T02:34:51.750Z,95085.78
2022-08-03T02:37:20.115Z,95093.22
2022-08-03T02:39:48.240Z,95083.06
2022-08-03T02:42:17.157Z,95087.31
2022-08-03T02:44:48.510Z,95090.00
2022-08-03T02:47:17.185Z,95087.75
2022-08-03T02:49:50.876Z,95091.53
2022-08-03T02:52:24.326Z,95085.28
2022-08-03T02:54:55.378Z,95093.84
2022-08-03T02:57:23.272Z,95083.38
2022-08-03T02:59:51.705Z,95087.50
2022-08-03T03:02:19.829Z,95097.66
2022-08-03T03:05:50.732Z,95105.13
2022-08-03T03:07:52.165Z,95111.03
2022-08-03T03:10:22.743Z,95112.59
2022-08-03T03:12:52.237Z,95114.03
2022-08-03T03:15:19.327Z,95111.81
2022-08-03T03:17:48.379Z,95108.72
2022-08-03T03:20:15.810Z,95108.91
2022-08-03T03:22:58.883Z,95128.09
2022-08-03T03:25:27.876Z,95127.63
2022-08-03T03:27:55.083Z,95131.63
2022-08-03T03:30:25.126Z,95132.75
2022-08-03T03:32:52.736Z,95126.31
2022-08-03T03:35:19.550Z,95123.59
2022-08-03T03:37:46.502Z,95131.44
2022-08-03T03:40:14.489Z,95126.25
2022-08-03T03:42:41.414Z,95130.53
2022-08-03T03:45:08.839Z,95123.13
2022-08-03T03:47:35.960Z,95134.97
2022-08-03T03:50:06.941Z,95129.03
2022-08-03T03:52:34.602Z,95136.06
2022-08-03T03:55:01.925Z,95139.06
2022-08-03T03:57:29.657Z,95140.25
2022-08-03T03:59:56.806Z,95138.28
2022-08-03T04:02:23.637Z,95145.56
2022-08-03T04:05:09.365Z,95143.00
2022-08-03T04:08:20.552Z,95138.19
2022-08-03T04:11:12.807Z,95134.91
2022-08-03T04:14:03.550Z,95141.28
2022-08-03T04:16:41.909Z,95140.09
2022-08-03T04:19:34.091Z,95129.22
2022-08-03T04:22:05.920Z,95135.66
2022-08-03T04:24:41.480Z,95141.03
2022-08-03T04:27:11.449Z,95140.38
2022-08-03T04:29:48.192Z,95133.28
2022-08-03T04:32:16.200Z,95140.19
2022-08-03T04:34:43.964Z,95140.56
2022-08-03T04:37:21.724Z,95147.13
2022-08-03T04:39:51.002Z,95134.06
2022-08-03T04:42:22.564Z,95148.22
2022-08-03T04:44:50.781Z,95119.19
2022-08-03T04:47:17.590Z,95158.88
2022-08-03T04:49:45.041Z,95163.94
2022-08-03T04:52:12.381Z,95164.69
2022-08-03T04:54:45.922Z,95161.78
2022-08-03T04:57:23.024Z,95162.19
2022-08-03T05:00:02.467Z,95165.75
2022-08-03T05:02:31.192Z,95161.84
2022-08-03T05:04:58.409Z,95164.06
2022-08-03T05:07:25.589Z,95155.19
2022-08-03T05:10:01.510Z,95170.66
2022-08-03T05:12:32.875Z,95175.63
2022-08-03T05:15:00.602Z,95181.31
2022-08-03T05:17:28.458Z,95186.31
2022-08-03T05:19:56.169Z,95181.03
2022-08-03T05:22:23.794Z,95182.13
2022-08-03T05:24:50.555Z,95182.00
2022-08-03T05:27:20.037Z,95184.03
2022-08-03T05:29:48.219Z,95193.31
2022-08-03T05:32:15.562Z,95183.84
2022-08-03T05:34:42.399Z,95182.06
2022-08-03T05:37:09.740Z,95199.09
2022-08-03T05:39:36.619Z,95193.09
2022-08-03T05:42:03.607Z,95196.00
2022-08-03T05:44:31.697Z,95198.00
2022-08-03T05:46:59.314Z,95197.56
2022-08-03T05:49:26.268Z,95200.72
2022-08-03T05:52:00.043Z,95197.75
2022-08-03T05:54:56.407Z,95189.84
2022-08-03T05:57:26.143Z,95202.31
2022-08-03T05:59:54.001Z,95202.47
2022-08-03T06:02:24.775Z,95197.66
2022-08-03T06:04:51.620Z,95202.63
2022-08-03T06:07:18.657Z,95198.31
2022-08-03T06:10:34.008Z,95185.97
2022-08-03T06:12:32.235Z,95204.88
2022-08-03T06:14:59.008Z,95205.84
2022-08-03T06:17:25.730Z,95208.72
2022-08-03T06:19:53.970Z,95194.47
2022-08-03T06:22:20.815Z,95191.84
2022-08-03T06:24:51.550Z,95197.13
2022-08-03T06:27:20.729Z,95200.41
2022-08-03T06:30:04.254Z,95201.06
2022-08-03T06:32:30.993Z,95195.34
2022-08-03T06:34:57.703Z,95203.53
2022-08-03T06:37:24.690Z,95205.47
2022-08-03T06:39:51.363Z,95195.56
2022-08-03T06:42:18.469Z,95187.22
2022-08-03T06:44:47.760Z,95184.75
2022-08-03T06:47:14.581Z,95181.94
2022-08-03T06:49:41.803Z,95180.28
2022-08-03T06:52:08.541Z,95189.06
2022-08-03T06:54:36.353Z,95184.19
2022-08-03T06:57:03.805Z,95181.34
2022-08-03T07:00:10.468Z,95178.53
2022-08-03T07:02:19.899Z,95174.19
2022-08-03T07:04:49.245Z,95176.63
2022-08-03T07:07:16.091Z,95165.81
2022-08-03T07:09:42.860Z,95170.31
2022-08-03T07:12:24.551Z,95182.16
2022-08-03T07:14:51.315Z,95176.66
2022-08-03T07:17:18.072Z,95175.56
2022-08-03T07:19:44.947Z,95179.38
2022-08-03T07:22:11.811Z,95179.59
2022-08-03T07:24:38.568Z,95175.44
2022-08-03T07:27:05.360Z,95182.75
2022-08-03T07:29:34.752Z,95188.09
2022-08-03T07:32:02.003Z,95182.84
2022-08-03T07:34:29.064Z,95181.75
2022-08-03T07:36:55.878Z,95184.38
2022-08-03T07:39:22.662Z,95183.59
2022-08-03T07:41:51.594Z,95189.06
2022-08-03T07:44:19.767Z,95183.91
2022-08-03T07:46:47.177Z,95184.41
2022-08-03T07:49:14.481Z,95186.00
2022-08-03T07:51:41.328Z,95188.41
2022-08-03T07:54:10.210Z,95181.63
2022-08-03T07:56:37.581Z,95184.31
2022-08-03T07:59:07.260Z,95184.97
2022-08-03T08:01:36.645Z,95181.56
2022-08-03T08:04:04.664Z,95181.53
2022-08-03T08:06:32.734Z,95184.03
2022-08-03T08:09:02.334Z,95185.84
2022-08-03T08:11:29.127Z,95184.91
2022-08-03T08:13:55.972Z,95195.69
2022-08-03T08:16:22.722Z,95192.72
2022-08-03T08:18:49.437Z,95177.22
2022-08-03T08:21:16.319Z,95176.38
2022-08-03T08:23:46.234Z,95186.31
2022-08-03T08:26:22.554Z,95176.84
2022-08-03T08:28:49.549Z,95182.50
2022-08-03T08:31:16.318Z,95182.31
2022-08-03T08:34:03.052Z,95189.47
2022-08-03T08:36:29.727Z,95179.84
2022-08-03T08:38:56.550Z,95176.63
2022-08-03T08:41:23.326Z,95179.25
2022-08-03T08:43:50.108Z,95177.47
2022-08-03T08:46:23.590Z,95174.44
2022-08-03T08:48:52.781Z,95170.63
2022-08-03T08:51:22.190Z,95170.56
2022-08-03T08:53:52.619Z,95173.28
2022-08-03T08:56:22.841Z,95166.53
2022-08-03T08:58:53.268Z,95157.72
2022-08-03T09:01:20.799Z,95168.91
2022-08-03T09:03:51.786Z,95166.00
2022-08-03T09:06:18.551Z,95158.66
2022-08-03T09:08:45.243Z,95157.25
2022-08-03T09:11:12.302Z,95161.50
2022-08-03T09:13:39.311Z,95157.50
2022-08-03T09:16:24.024Z,95159.22
2022-08-03T09:18:53.343Z,95146.97
2022-08-03T09:21:32.948Z,95149.34
2022-08-03T09:24:04.342Z,95151.78
2022-08-03T09:26:35.186Z,95148.66
2022-08-03T09:29:13.526Z,95150.47
2022-08-03T09:31:44.673Z,95153.94
2022-08-03T09:34:14.129Z,95152.53
2022-08-03T09:36:52.331Z,95147.78
2022-08-03T09:39:41.770Z,95153.19
2022-08-03T09:42:23.757Z,95154.84
2022-08-03T09:44:52.113Z,95154.47
2022-08-03T09:47:34.408Z,95151.78
2022-08-03T09:50:04.287Z,95143.25
2022-08-03T09:52:52.304Z,95145.97
2022-08-03T09:56:33.399Z,95151.03
2022-08-03T09:58:11.878Z,95140.94
2022-08-03T10:00:57.698Z,95137.09
2022-08-03T10:03:26.446Z,95140.16
2022-08-03T10:05:59.047Z,95151.78
2022-08-03T10:08:26.524Z,95139.00
2022-08-03T10:10:58.609Z,95130.84
2022-08-03T10:13:25.574Z,95132.44
2022-08-03T10:16:21.916Z,95140.94
2022-08-03T10:18:39.144Z,95137.84
2022-08-03T10:21:10.516Z,95133.16
2022-08-03T10:23:38.622Z,95135.53
2022-08-03T10:26:07.799Z,95126.94
2022-08-03T10:28:47.200Z,95120.00
2022-08-03T10:31:14.561Z,95118.41
2022-08-03T10:33:52.833Z,95121.75
2022-08-03T10:36:24.655Z,95123.06
2022-08-03T10:38:53.304Z,95129.25
2022-08-03T10:41:21.969Z,95119.75
2022-08-03T10:44:23.097Z,95124.41
2022-08-03T10:46:51.283Z,95112.97
2022-08-03T10:49:25.478Z,95111.00
2022-08-03T10:52:10.386Z,95108.56
2022-08-03T10:55:07.592Z,95110.00
2022-08-03T10:57:58.387Z,95102.00
2022-08-03T11:00:28.270Z,95097.41
2022-08-03T11:03:06.528Z,95103.19
2022-08-03T11:05:48.248Z,95097.44
2022-08-03T11:08:36.906Z,95091.13
2022-08-03T11:11:28.679Z,95095.06
2022-08-03T11:14:08.175Z,95092.50
2022-08-03T11:16:36.492Z,95094.38
2022-08-03T11:19:09.247Z,95095.09
2022-08-03T11:21:57.087Z,95078.72
2022-08-03T11:24:51.404Z,95085.25
2022-08-03T11:27:19.307Z,95082.78
2022-08-03T11:29:56.914Z,95084.22
2022-08-03T11:32:46.764Z,95083.34
2022-08-03T11:35:15.333Z,95071.38
2022-08-03T11:38:03.163Z,95064.88
2022-08-03T11:40:45.164Z,95057.44
2022-08-03T11:43:33.886Z,95059.03
2022-08-03T11:46:28.546Z,95062.28
2022-08-03T11:49:09.868Z,95062.78
2022-08-03T11:51:38.832Z,95070.81
2022-08-03T11:54:06.970Z,95056.75
2022-08-03T11:56:48.798Z,95065.81
2022-08-03T11:59:21.578Z,95053.56
2022-08-03T12:01:50.225Z,95064.69
2022-08-03T12:04:17.009Z,95052.44
2022-08-03T12:06:59.238Z,95048.28
2022-08-03T12:09:26.139Z,95056.00
2022-08-03T12:12:00.363Z,95047.59
2022-08-03T12:14:49.020Z,95044.75
2022-08-03T12:17:19.180Z,95041.91
2022-08-03T12:19:46.557Z,95035.75
2022-08-03T12:22:13.728Z,95046.19
2022-08-03T12:24:46.868Z,95044.03
2022-08-03T12:27:25.035Z,95046.94
2022-08-03T12:29:58.334Z,95047.25
2022-08-03T12:32:27.444Z,95045.66
2022-08-03T12:34:55.632Z,95047.94
2022-08-03T12:37:23.651Z,95045.50
2022-08-03T12:40:02.647Z,95043.88
2022-08-03T12:42:32.701Z,95041.19
2022-08-03T12:44:59.429Z,95038.72
2022-08-03T12:47:26.283Z,95036.34
2022-08-03T12:49:54.218Z,95039.88
2022-08-03T12:52:22.741Z,95043.25
2022-08-03T12:55:01.135Z,95027.66
2022-08-03T12:57:41.263Z,95024.97
2022-08-03T13:00:28.777Z,95025.16
2022-08-03T13:03:38.437Z,95009.63
2022-08-03T13:05:52.884Z,95017.44
2022-08-03T13:08:22.272Z,95019.28
2022-08-03T13:10:49.410Z,95014.28
2022-08-03T13:13:16.668Z,95021.53
2022-08-03T13:15:48.162Z,95016.59
2022-08-03T13:18:17.176Z,95017.59
2022-08-03T13:20:44.433Z,95018.91
2022-08-03T13:23:15.380Z,95011.81
2022-08-03T13:25:55.237Z,95013.53
2022-08-03T13:28:23.118Z,95029.16
2022-08-03T13:30:49.849Z,95026.66
2022-08-03T13:33:17.908Z,95023.47
2022-08-03T13:35:44.771Z,95028.28
2022-08-03T13:38:11.692Z,95026.16
2022-08-03T13:40:41.676Z,95019.00
2022-08-03T13:43:09.028Z,95025.94
2022-08-03T13:45:35.895Z,95023.69
2022-08-03T13:48:02.565Z,95020.63
2022-08-03T13:50:30.227Z,95023.63
2022-08-03T13:52:57.961Z,95025.19
2022-08-03T13:55:25.139Z,95031.66
2022-08-03T13:58:11.795Z,95027.63
2022-08-03T14:00:39.884Z,95024.81
2022-08-03T14:03:13.828Z,95023.56
2022-08-03T14:05:42.966Z,95035.13
2022-08-03T14:08:10.493Z,95025.91
2022-08-03T14:10:40.592Z,95022.97
2022-08-03T14:13:08.025Z,95033.56
2022-08-03T14:15:38.115Z,95035.41
2022-08-03T14:18:07.219Z,95032.94
2022-08-03T14:20:50.067Z,95031.97
2022-08-03T14:23:21.798Z,95032.69
2022-08-03T14:25:51.897Z,95025.88
2022-08-03T14:28:22.358Z,95023.47
2022-08-03T14:30:49.863Z,95021.97
2022-08-03T14:33:16.595Z,95028.94
2022-08-03T14:35:43.398Z,95035.59
2022-08-03T14:38:10.134Z,95023.94
2022-08-03T14:40:36.873Z,95013.84
2022-08-03T14:43:03.946Z,95021.22
2022-08-03T14:45:31.131Z,95018.13
2022-08-03T14:50:29.596Z,95021.22
2022-08-03T14:50:51.049Z,95018.81
2022-08-03T14:53:20.015Z,95030.53
2022-08-03T14:55:50.398Z,95039.84
2022-08-03T14:58:22.594Z,95040.66
2022-08-03T15:00:51.546Z,95044.59
2022-08-03T15:03:25.381Z,95050.97
2022-08-03T15:05:56.571Z,95058.63
2022-08-03T15:08:26.027Z,95061.44
2022-08-03T15:10:57.023Z,95057.88
2022-08-03T15:13:25.325Z,95051.44
2022-08-03T15:15:52.435Z,95057.41
2022-08-03T15:18:20.145Z,95059.94
2022-08-03T15:20:49.061Z,95080.94
2022-08-03T15:23:16.742Z,95074.97
2022-08-03T15:26:29.291Z,95070.47
2022-08-03T15:28:32.588Z,95087.47
2022-08-03T15:30:59.493Z,95097.91
2022-08-03T15:33:26.341Z,95097.56
2022-08-03T15:35:53.452Z,95103.53
2022-08-03T15:38:25.756Z,95122.81
2022-08-03T15:40:56.966Z,95139.56
2022-08-03T15:43:24.245Z,95162.13
2022-08-03T15:46:12.715Z,95170.69
2022-08-03T15:48:38.950Z,95171.28
2022-08-03T15:51:06.339Z,95145.31
2022-08-03T15:53:33.756Z,95138.47
2022-08-03T15:56:01.054Z,95130.44
2022-08-03T15:59:09.608Z,95115.03
2022-08-03T16:01:22.167Z,95097.72
2022-08-03T16:03:49.028Z,95101.19
2022-08-03T16:06:16.001Z,95110.28
2022-08-03T16:08:43.817Z,95101.06
2022-08-03T16:11:11.149Z,95098.59
2022-08-03T16:14:12.871Z,95116.06
2022-08-03T16:16:24.844Z,95117.81
2022-08-03T16:18:51.703Z,95114.69
2022-08-03T16:21:20.026Z,95111.16
2022-08-03T16:23:48.948Z,95112.75
2022-08-03T16:26:15.940Z,95098.22
2022-08-03T16:28:42.664Z,95097.28
2022-08-03T16:31:10.729Z,95093.78
2022-08-03T16:33:37.575Z,95110.81
2022-08-03T16:36:04.511Z,95110.16
2022-08-03T16:38:31.539Z,95103.25
2022-08-03T16:40:58.812Z,95099.16
2022-08-03T16:43:28.374Z,95093.66
2022-08-03T16:45:55.258Z,95108.91
2022-08-03T16:48:22.999Z,95117.41
2022-08-03T16:50:49.945Z,95101.97
2022-08-03T16:53:33.692Z,95083.47
2022-08-03T16:56:09.516Z,95106.66
2022-08-03T16:58:42.055Z,95094.09
2022-08-03T17:01:21.898Z,95085.78
2022-08-03T17:04:02.251Z,95086.34
2022-08-03T17:06:38.485Z,95086.50
2022-08-03T17:09:23.293Z,95087.50
2022-08-03T17:12:01.716Z,95090.28
2022-08-03T17:14:58.101Z,95080.31
2022-08-03T17:17:37.723Z,95077.53
2022-08-03T17:20:19.687Z,95088.88
2022-08-03T17:23:04.054Z,95079.97
2022-08-03T17:25:51.261Z,95083.78
2022-08-03T17:28:50.423Z,95068.09
2022-08-03T17:31:23.591Z,95089.72
2022-08-03T17:34:01.143Z,95088.22
2022-08-03T17:36:47.588Z,95045.47
2022-08-03T17:39:23.519Z,95085.56
2022-08-03T17:42:00.833Z,95083.22
2022-08-03T17:44:33.157Z,95088.94
2022-08-03T17:47:07.403Z,95088.50
2022-08-03T17:49:39.976Z,95091.25
2022-08-03T17:52:19.101Z,95072.56
2022-08-03T17:55:50.891Z,95093.34
2022-08-03T17:58:02.765Z,95095.19
2022-08-03T18:00:51.522Z,95092.84
2022-08-03T18:06:34.886Z,95100.19
2022-08-03T18:09:05.196Z,95101.75
2022-08-03T18:11:55.645Z,95102.91
2022-08-03T18:14:39.256Z,95107.28
2022-08-03T18:17:10.381Z,95114.56
2022-08-03T18:20:02.472Z,95102.81
2022-08-03T18:22:27.217Z,95101.75
2022-08-03T18:25:00.267Z,95119.13
2022-08-03T18:27:42.702Z,95119.75
2022-08-03T18:30:13.822Z,95108.19
2022-08-03T18:32:43.966Z,95120.06
2022-08-03T18:35:53.571Z,95129.78
2022-08-03T18:38:18.785Z,95133.19
2022-08-03T18:40:48.589Z,95136.16
2022-08-03T18:43:17.575Z,95143.81
2022-08-03T18:45:57.231Z,95142.47
2022-08-03T18:48:57.046Z,95147.59
2022-08-03T18:51:28.753Z,95160.03
2022-08-03T18:54:59.078Z,95158.00
2022-08-03T18:57:02.111Z,95153.47
2022-08-03T18:59:40.678Z,95143.50
2022-08-03T19:02:26.714Z,95159.47
2022-08-03T19:04:59.503Z,95163.81
2022-08-03T19:07:27.531Z,95157.84
2022-08-03T19:10:09.414Z,95163.06
2022-08-03T19:12:48.345Z,95147.44
2022-08-03T19:15:15.647Z,95159.28
2022-08-03T19:17:53.002Z,95161.50
2022-08-03T19:20:22.864Z,95165.13
2022-08-03T19:22:53.431Z,95164.63
2022-08-03T19:25:20.858Z,95161.81
2022-08-03T19:28:07.480Z,95160.53
2022-08-03T19:30:39.131Z,95170.34
2022-08-03T19:33:09.871Z,95171.38
2022-08-03T19:35:46.992Z,95171.28
2022-08-03T19:38:29.254Z,95174.28
2022-08-03T19:40:59.777Z,95169.25
2022-08-03T19:43:49.285Z,95173.53
2022-08-03T19:46:30.346Z,95167.53
2022-08-03T19:49:10.289Z,95165.59
2022-08-03T19:52:00.616Z,95173.56
2022-08-03T19:54:29.984Z,95176.47
2022-08-03T19:57:01.731Z,95166.00
2022-08-03T19:59:33.592Z,95168.44
2022-08-03T20:02:00.579Z,95176.47
2022-08-03T20:04:27.421Z,95170.97
2022-08-03T20:06:57.146Z,95171.38
2022-08-03T20:09:25.378Z,95161.47
2022-08-03T20:11:57.383Z,95166.13
2022-08-03T20:14:26.723Z,95171.19
2022-08-03T20:16:53.906Z,95170.94
2022-08-03T20:19:21.492Z,95173.63
2022-08-03T20:21:50.756Z,95175.88
2022-08-03T20:24:23.425Z,95175.72
2022-08-03T20:26:54.213Z,95180.22
2022-08-03T20:30:06.355Z,95189.53
2022-08-03T20:32:29.883Z,95180.16
2022-08-03T20:34:58.983Z,95175.31
2022-08-03T20:37:25.765Z,95182.41
2022-08-03T20:39:54.420Z,95182.56
2022-08-03T20:42:22.312Z,95178.44
2022-08-03T20:45:04.802Z,95186.22
2022-08-03T20:50:22.471Z,95183.59
2022-08-03T20:52:50.593Z,95188.28
2022-08-03T20:55:47.783Z,95196.50
2022-08-03T20:58:09.136Z,95194.09
2022-08-03T21:00:35.961Z,95196.28
2022-08-03T21:03:03.944Z,95196.63
2022-08-03T21:05:47.913Z,95199.59
2022-08-03T21:08:26.920Z,95198.06
2022-08-03T21:10:57.440Z,95200.72
2022-08-03T21:12:56.491Z,95096.13
2022-08-03T21:13:07.506Z,95189.91
2022-08-03T21:13:39.336Z,95199.16
2022-08-03T21:16:14.227Z,95201.38
2022-08-03T21:18:50.267Z,95212.81
2022-08-03T21:21:20.920Z,95216.38
2022-08-03T21:23:59.146Z,95220.56
2022-08-03T21:26:27.209Z,95220.47
2022-08-03T21:28:56.640Z,95213.97
2022-08-03T21:31:26.219Z,95209.25
2022-08-03T21:33:56.547Z,95212.66
2022-08-03T21:36:25.741Z,95222.81
2022-08-03T21:38:57.267Z,95224.78
2022-08-03T21:41:31.037Z,95228.56
2022-08-03T21:43:59.202Z,95222.84
2022-08-03T21:46:27.270Z,95213.34
2022-08-03T21:50:05.363Z,95215.56
2022-08-03T21:51:49.523Z,95224.53
2022-08-03T21:54:18.671Z,95216.19
2022-08-03T21:56:48.319Z,95228.34
2022-08-03T21:59:20.102Z,95224.97
2022-08-03T22:01:48.817Z,95228.06
2022-08-03T22:04:50.817Z,95232.75
2022-08-03T22:07:08.339Z,95223.97
2022-08-03T22:09:36.179Z,95234.53
2022-08-03T22:12:03.734Z,95227.63
2022-08-03T22:14:32.877Z,95234.88
2022-08-03T22:17:00.747Z,95242.81
2022-08-03T22:19:32.971Z,95232.28
2022-08-03T22:22:00.451Z,95232.28
2022-08-03T22:24:32.017Z,95237.06
2022-08-03T22:27:21.232Z,95224.28
2022-08-03T22:29:50.401Z,95231.47
2022-08-03T22:32:17.274Z,95237.88
2022-08-03T22:34:46.571Z,95227.91
2022-08-03T22:37:17.459Z,95236.97
2022-08-03T22:39:44.866Z,95231.94
2022-08-03T22:42:12.737Z,95230.81
2022-08-03T22:44:40.214Z,95243.59
2022-08-03T22:47:07.466Z,95234.16
2022-08-03T22:49:35.752Z,95237.63
2022-08-03T22:52:02.705Z,95240.00
2022-08-03T22:54:31.703Z,95242.66
2022-08-03T22:56:59.179Z,95239.31
2022-08-03T22:59:39.128Z,95239.31
2022-08-03T23:02:21.100Z,95233.09
2022-08-03T23:04:57.391Z,95232.81
2022-08-03T23:07:33.541Z,95233.94
2022-08-03T23:10:09.898Z,95236.97
2022-08-03T23:12:39.211Z,95235.97
2022-08-03T23:15:08.786Z,95240.56
2022-08-03T23:17:58.313Z,95229.72
2022-08-03T23:20:26.915Z,95228.16
2022-08-03T23:22:57.684Z,95210.56
2022-08-03T23:25:25.225Z,95239.06
2022-08-03T23:28:04.891Z,95230.84
2022-08-03T23:30:37.182Z,95228.47
2022-08-03T23:33:04.445Z,95241.66
2022-08-03T23:36:17.238Z,95234.28
2022-08-03T23:38:36.871Z,95242.91
2022-08-03T23:41:05.140Z,95250.94
2022-08-03T23:43:52.293Z,95252.19
2022-08-03T23:46:25.792Z,95253.03
2022-08-03T23:48:53.647Z,95245.03
2022-08-03T23:51:43.008Z,95239.38
2022-08-03T23:54:18.748Z,95241.03
2022-08-03T23:57:18.655Z,95247.34
